sensor_id;sensor_type;location;lat;lon;timestamp;temperature;humidity
44435;DHT22;30138;20.964;105.830;2022-07-06T00:04:05;32.00;99.80
44435;DHT22;30138;20.964;105.830;2022-07-06T00:09:11;32.00;99.80
44435;DHT22;30138;20.964;105.830;2022-07-06T00:14:17;32.00;99.90
44435;DHT22;30138;20.964;105.830;2022-07-06T00:19:25;32.00;99.90
44435;DHT22;30138;20.964;105.830;2022-07-06T00:24:32;32.00;99.90
44435;DHT22;30138;20.964;105.830;2022-07-06T00:29:38;32.00;99.90
44435;DHT22;30138;20.964;105.830;2022-07-06T00:34:48;32.00;99.90
44435;DHT22;30138;20.964;105.830;2022-07-06T00:39:54;32.00;99.90
44435;DHT22;30138;20.964;105.830;2022-07-06T00:45:01;32.00;99.90
44435;DHT22;30138;20.964;105.830;2022-07-06T00:50:11;32.00;99.90
44435;DHT22;30138;20.964;105.830;2022-07-06T00:55:25;32.00;99.90
44435;DHT22;30138;20.964;105.830;2022-07-06T01:00:32;32.00;99.90
44435;DHT22;30138;20.964;105.830;2022-07-06T01:05:41;32.00;99.90
44435;DHT22;30138;20.964;105.830;2022-07-06T01:10:48;32.00;99.90
44435;DHT22;30138;20.964;105.830;2022-07-06T01:15:55;31.90;99.90
44435;DHT22;30138;20.964;105.830;2022-07-06T01:21:12;32.00;99.90
44435;DHT22;30138;20.964;105.830;2022-07-06T01:26:20;31.90;99.90
44435;DHT22;30138;20.964;105.830;2022-07-06T01:31:27;31.90;99.90
44435;DHT22;30138;20.964;105.830;2022-07-06T01:36:36;32.00;99.90
44435;DHT22;30138;20.964;105.830;2022-07-06T01:41:42;32.00;99.90
44435;DHT22;30138;20.964;105.830;2022-07-06T01:46:49;32.00;99.90
44435;DHT22;30138;20.964;105.830;2022-07-06T01:51:57;32.00;99.90
44435;DHT22;30138;20.964;105.830;2022-07-06T01:57:04;32.00;99.90
44435;DHT22;30138;20.964;105.830;2022-07-06T02:02:11;32.00;99.90
44435;DHT22;30138;20.964;105.830;2022-07-06T02:07:22;32.00;99.90
44435;DHT22;30138;20.964;105.830;2022-07-06T02:12:29;32.00;99.90
44435;DHT22;30138;20.964;105.830;2022-07-06T02:17:35;32.00;99.90
44435;DHT22;30138;20.964;105.830;2022-07-06T02:22:43;32.00;99.90
44435;DHT22;30138;20.964;105.830;2022-07-06T02:27:50;32.00;99.90
44435;DHT22;30138;20.964;105.830;2022-07-06T02:32:56;32.00;99.90
44435;DHT22;30138;20.964;105.830;2022-07-06T02:38:06;32.00;99.90
44435;DHT22;30138;20.964;105.830;2022-07-06T02:43:13;32.00;99.90
44435;DHT22;30138;20.964;105.830;2022-07-06T02:48:20;32.00;99.90
44435;DHT22;30138;20.964;105.830;2022-07-06T02:53:29;32.00;99.90
44435;DHT22;30138;20.964;105.830;2022-07-06T02:58:36;32.00;99.90
44435;DHT22;30138;20.964;105.830;2022-07-06T03:03:43;32.00;99.90
44435;DHT22;30138;20.964;105.830;2022-07-06T03:08:51;32.10;99.90
44435;DHT22;30138;20.964;105.830;2022-07-06T03:13:59;32.10;99.90
44435;DHT22;30138;20.964;105.830;2022-07-06T03:19:06;32.10;99.90
44435;DHT22;30138;20.964;105.830;2022-07-06T03:24:14;32.10;99.90
44435;DHT22;30138;20.964;105.830;2022-07-06T03:29:20;32.10;99.90
44435;DHT22;30138;20.964;105.830;2022-07-06T03:34:27;32.10;99.90
44435;DHT22;30138;20.964;105.830;2022-07-06T03:39:36;32.10;99.90
44435;DHT22;30138;20.964;105.830;2022-07-06T03:44:42;32.10;99.90
44435;DHT22;30138;20.964;105.830;2022-07-06T03:49:49;32.10;99.90
44435;DHT22;30138;20.964;105.830;2022-07-06T03:54:58;32.10;99.90
44435;DHT22;30138;20.964;105.830;2022-07-06T04:00:08;32.10;99.90
44435;DHT22;30138;20.964;105.830;2022-07-06T04:05:20;32.10;99.90
44435;DHT22;30138;20.964;105.830;2022-07-06T04:10:31;32.10;99.90
44435;DHT22;30138;20.964;105.830;2022-07-06T04:15:39;32.10;99.90
44435;DHT22;30138;20.964;105.830;2022-07-06T04:20:45;32.10;99.90
44435;DHT22;30138;20.964;105.830;2022-07-06T04:25:54;32.20;99.90
44435;DHT22;30138;20.964;105.830;2022-07-06T04:31:03;32.20;99.90
44435;DHT22;30138;20.964;105.830;2022-07-06T04:36:10;32.20;99.90
44435;DHT22;30138;20.964;105.830;2022-07-06T04:41:22;32.20;99.90
44435;DHT22;30138;20.964;105.830;2022-07-06T04:46:29;32.20;99.90
44435;DHT22;30138;20.964;105.830;2022-07-06T04:51:36;32.20;99.90
44435;DHT22;30138;20.964;105.830;2022-07-06T04:56:44;32.30;99.90
44435;DHT22;30138;20.964;105.830;2022-07-06T05:01:51;32.30;99.90
44435;DHT22;30138;20.964;105.830;2022-07-06T05:06:57;32.30;99.90
44435;DHT22;30138;20.964;105.830;2022-07-06T05:12:07;32.30;99.90
44435;DHT22;30138;20.964;105.830;2022-07-06T05:17:14;32.30;99.90
44435;DHT22;30138;20.964;105.830;2022-07-06T05:22:20;32.30;99.90
44435;DHT22;30138;20.964;105.830;2022-07-06T05:27:29;32.30;99.90
44435;DHT22;30138;20.964;105.830;2022-07-06T05:32:36;32.30;99.90
44435;DHT22;30138;20.964;105.830;2022-07-06T05:37:43;32.30;99.90
44435;DHT22;30138;20.964;105.830;2022-07-06T05:42:51;32.40;99.90
44435;DHT22;30138;20.964;105.830;2022-07-06T05:47:58;32.40;99.90
44435;DHT22;30138;20.964;105.830;2022-07-06T05:53:20;32.40;99.90
44435;DHT22;30138;20.964;105.830;2022-07-06T05:58:31;32.40;99.90
44435;DHT22;30138;20.964;105.830;2022-07-06T06:03:39;32.50;99.90
44435;DHT22;30138;20.964;105.830;2022-07-06T06:08:48;32.50;99.90
44435;DHT22;30138;20.964;105.830;2022-07-06T06:13:57;32.50;99.90
44435;DHT22;30138;20.964;105.830;2022-07-06T06:19:04;32.50;99.90
44435;DHT22;30138;20.964;105.830;2022-07-06T06:24:11;32.50;99.90
44435;DHT22;30138;20.964;105.830;2022-07-06T06:29:19;32.50;99.90
44435;DHT22;30138;20.964;105.830;2022-07-06T06:34:26;32.50;99.90
44435;DHT22;30138;20.964;105.830;2022-07-06T06:39:35;32.50;99.90
44435;DHT22;30138;20.964;105.830;2022-07-06T06:44:43;32.60;99.90
44435;DHT22;30138;20.964;105.830;2022-07-06T06:49:50;32.60;99.90
44435;DHT22;30138;20.964;105.830;2022-07-06T06:54:56;32.60;99.90
44435;DHT22;30138;20.964;105.830;2022-07-06T07:00:05;32.60;99.90
44435;DHT22;30138;20.964;105.830;2022-07-06T07:05:12;32.60;99.90
44435;DHT22;30138;20.964;105.830;2022-07-06T07:10:19;32.60;99.90
44435;DHT22;30138;20.964;105.830;2022-07-06T07:15:28;32.60;99.90
44435;DHT22;30138;20.964;105.830;2022-07-06T07:20:35;32.60;99.90
44435;DHT22;30138;20.964;105.830;2022-07-06T07:25:41;32.70;99.90
44435;DHT22;30138;20.964;105.830;2022-07-06T07:30:49;32.60;99.90
44435;DHT22;30138;20.964;105.830;2022-07-06T07:35:55;32.70;99.90
44435;DHT22;30138;20.964;105.830;2022-07-06T07:41:01;32.70;99.90
44435;DHT22;30138;20.964;105.830;2022-07-06T07:46:10;32.70;99.90
44435;DHT22;30138;20.964;105.830;2022-07-06T07:51:17;32.70;99.90
44435;DHT22;30138;20.964;105.830;2022-07-06T07:56:23;32.70;99.90
44435;DHT22;30138;20.964;105.830;2022-07-06T08:01:31;32.70;99.90
44435;DHT22;30138;20.964;105.830;2022-07-06T08:06:38;32.70;99.90
44435;DHT22;30138;20.964;105.830;2022-07-06T08:11:47;32.70;99.90
44435;DHT22;30138;20.964;105.830;2022-07-06T08:16:56;32.70;99.90
44435;DHT22;30138;20.964;105.830;2022-07-06T08:22:03;32.70;99.90
44435;DHT22;30138;20.964;105.830;2022-07-06T08:27:10;32.70;99.90
44435;DHT22;30138;20.964;105.830;2022-07-06T08:32:18;32.70;99.90
44435;DHT22;30138;20.964;105.830;2022-07-06T08:37:24;32.70;99.90
44435;DHT22;30138;20.964;105.830;2022-07-06T08:42:32;32.60;99.90
44435;DHT22;30138;20.964;105.830;2022-07-06T08:47:42;32.70;99.90
44435;DHT22;30138;20.964;105.830;2022-07-06T08:52:49;32.60;99.90
44435;DHT22;30138;20.964;105.830;2022-07-06T08:57:56;32.70;99.90
44435;DHT22;30138;20.964;105.830;2022-07-06T09:03:05;32.60;99.90
44435;DHT22;30138;20.964;105.830;2022-07-06T09:08:13;32.60;99.90
44435;DHT22;30138;20.964;105.830;2022-07-06T09:13:19;32.60;99.90
44435;DHT22;30138;20.964;105.830;2022-07-06T09:18:28;32.60;99.90
44435;DHT22;30138;20.964;105.830;2022-07-06T09:23:34;32.60;99.90
44435;DHT22;30138;20.964;105.830;2022-07-06T09:28:42;32.60;99.90
44435;DHT22;30138;20.964;105.830;2022-07-06T09:33:59;32.60;99.90
44435;DHT22;30138;20.964;105.830;2022-07-06T09:39:22;32.60;99.90
44435;DHT22;30138;20.964;105.830;2022-07-06T09:44:30;32.60;99.90
44435;DHT22;30138;20.964;105.830;2022-07-06T09:49:39;32.60;99.90
44435;DHT22;30138;20.964;105.830;2022-07-06T09:54:49;32.60;99.90
44435;DHT22;30138;20.964;105.830;2022-07-06T09:59:55;32.60;99.90
44435;DHT22;30138;20.964;105.830;2022-07-06T10:05:04;32.60;99.90
44435;DHT22;30138;20.964;105.830;2022-07-06T10:10:10;32.60;99.90
44435;DHT22;30138;20.964;105.830;2022-07-06T10:15:18;32.60;99.90
44435;DHT22;30138;20.964;105.830;2022-07-06T10:20:29;32.60;99.90
44435;DHT22;30138;20.964;105.830;2022-07-06T10:25:36;32.60;99.90
44435;DHT22;30138;20.964;105.830;2022-07-06T10:30:43;32.60;99.90
44435;DHT22;30138;20.964;105.830;2022-07-06T10:35:52;32.60;99.90
44435;DHT22;30138;20.964;105.830;2022-07-06T10:41:03;32.60;99.90
44435;DHT22;30138;20.964;105.830;2022-07-06T10:46:10;32.60;99.90
44435;DHT22;30138;20.964;105.830;2022-07-06T10:51:26;32.60;99.90
44435;DHT22;30138;20.964;105.830;2022-07-06T10:56:37;32.60;99.90
44435;DHT22;30138;20.964;105.830;2022-07-06T11:02:14;32.60;99.90
44435;DHT22;30138;20.964;105.830;2022-07-06T11:07:23;32.60;99.90
44435;DHT22;30138;20.964;105.830;2022-07-06T11:12:29;32.60;99.90
44435;DHT22;30138;20.964;105.830;2022-07-06T11:17:35;32.60;99.90
44435;DHT22;30138;20.964;105.830;2022-07-06T11:22:44;32.60;99.90
44435;DHT22;30138;20.964;105.830;2022-07-06T11:27:50;32.60;99.90
44435;DHT22;30138;20.964;105.830;2022-07-06T11:32:56;32.60;99.90
44435;DHT22;30138;20.964;105.830;2022-07-06T11:38:25;32.60;99.90
44435;DHT22;30138;20.964;105.830;2022-07-06T11:43:32;32.60;99.90
44435;DHT22;30138;20.964;105.830;2022-07-06T11:48:46;32.60;99.90
44435;DHT22;30138;20.964;105.830;2022-07-06T11:53:56;32.50;99.90
44435;DHT22;30138;20.964;105.830;2022-07-06T11:59:02;32.50;99.90
44435;DHT22;30138;20.964;105.830;2022-07-06T12:04:09;32.60;99.90
44435;DHT22;30138;20.964;105.830;2022-07-06T12:09:18;32.50;99.90
44435;DHT22;30138;20.964;105.830;2022-07-06T12:14:24;32.50;99.90
44435;DHT22;30138;20.964;105.830;2022-07-06T12:19:30;32.50;99.90
44435;DHT22;30138;20.964;105.830;2022-07-06T12:24:42;32.60;99.90
44435;DHT22;30138;20.964;105.830;2022-07-06T12:29:49;32.50;99.90
44435;DHT22;30138;20.964;105.830;2022-07-06T12:35:04;32.50;99.90
44435;DHT22;30138;20.964;105.830;2022-07-06T12:40:15;32.50;99.90
44435;DHT22;30138;20.964;105.830;2022-07-06T12:45:27;32.50;99.90
44435;DHT22;30138;20.964;105.830;2022-07-06T12:50:34;32.50;99.90
44435;DHT22;30138;20.964;105.830;2022-07-06T12:55:42;32.50;99.90
44435;DHT22;30138;20.964;105.830;2022-07-06T13:00:49;32.50;99.90
44435;DHT22;30138;20.964;105.830;2022-07-06T13:05:56;32.50;99.90
44435;DHT22;30138;20.964;105.830;2022-07-06T13:11:04;32.50;99.90
44435;DHT22;30138;20.964;105.830;2022-07-06T13:16:10;32.50;99.90
44435;DHT22;30138;20.964;105.830;2022-07-06T13:21:17;32.50;99.90
44435;DHT22;30138;20.964;105.830;2022-07-06T13:26:25;32.50;99.90
44435;DHT22;30138;20.964;105.830;2022-07-06T13:31:31;32.40;99.90
44435;DHT22;30138;20.964;105.830;2022-07-06T13:36:37;32.40;99.90
44435;DHT22;30138;20.964;105.830;2022-07-06T13:41:49;32.40;99.90
44435;DHT22;30138;20.964;105.830;2022-07-06T13:46:56;32.40;99.90
44435;DHT22;30138;20.964;105.830;2022-07-06T13:52:03;32.40;99.90
44435;DHT22;30138;20.964;105.830;2022-07-06T13:57:12;32.40;99.90
44435;DHT22;30138;20.964;105.830;2022-07-06T14:02:18;32.40;99.90
44435;DHT22;30138;20.964;105.830;2022-07-06T14:07:24;32.40;99.90
44435;DHT22;30138;20.964;105.830;2022-07-06T14:12:32;32.30;99.90
44435;DHT22;30138;20.964;105.830;2022-07-06T14:17:39;32.30;99.90
44435;DHT22;30138;20.964;105.830;2022-07-06T14:22:46;32.30;99.90
44435;DHT22;30138;20.964;105.830;2022-07-06T14:27:54;32.30;99.90
44435;DHT22;30138;20.964;105.830;2022-07-06T14:33:01;32.30;99.90
44435;DHT22;30138;20.964;105.830;2022-07-06T14:38:10;32.30;99.90
44435;DHT22;30138;20.964;105.830;2022-07-06T14:43:18;32.30;99.90
44435;DHT22;30138;20.964;105.830;2022-07-06T14:48:25;32.30;99.90
44435;DHT22;30138;20.964;105.830;2022-07-06T14:53:31;32.30;99.90
44435;DHT22;30138;20.964;105.830;2022-07-06T14:58:40;32.30;99.90
44435;DHT22;30138;20.964;105.830;2022-07-06T15:03:47;32.20;99.90
44435;DHT22;30138;20.964;105.830;2022-07-06T15:08:54;32.20;99.90
44435;DHT22;30138;20.964;105.830;2022-07-06T15:14:02;32.20;99.90
44435;DHT22;30138;20.964;105.830;2022-07-06T15:19:09;32.20;99.90
44435;DHT22;30138;20.964;105.830;2022-07-06T15:24:15;32.20;99.90
44435;DHT22;30138;20.964;105.830;2022-07-06T15:29:23;32.20;99.90
44435;DHT22;30138;20.964;105.830;2022-07-06T15:34:30;32.20;99.90
44435;DHT22;30138;20.964;105.830;2022-07-06T15:39:36;32.20;99.90
44435;DHT22;30138;20.964;105.830;2022-07-06T15:44:45;32.20;99.90
44435;DHT22;30138;20.964;105.830;2022-07-06T15:49:54;32.20;99.90
44435;DHT22;30138;20.964;105.830;2022-07-06T15:55:01;32.20;99.90
44435;DHT22;30138;20.964;105.830;2022-07-06T16:00:11;32.20;99.90
44435;DHT22;30138;20.964;105.830;2022-07-06T16:05:18;32.20;99.90
44435;DHT22;30138;20.964;105.830;2022-07-06T16:10:24;32.20;99.90
44435;DHT22;30138;20.964;105.830;2022-07-06T16:15:33;32.20;99.90
44435;DHT22;30138;20.964;105.830;2022-07-06T16:20:40;32.10;99.90
44435;DHT22;30138;20.964;105.830;2022-07-06T16:25:46;32.20;99.90
44435;DHT22;30138;20.964;105.830;2022-07-06T16:30:54;32.10;99.90
44435;DHT22;30138;20.964;105.830;2022-07-06T16:36:02;32.10;99.90
44435;DHT22;30138;20.964;105.830;2022-07-06T16:41:10;32.20;99.90
44435;DHT22;30138;20.964;105.830;2022-07-06T16:46:18;32.10;99.90
44435;DHT22;30138;20.964;105.830;2022-07-06T16:51:24;32.10;99.90
44435;DHT22;30138;20.964;105.830;2022-07-06T16:56:31;32.10;99.90
44435;DHT22;30138;20.964;105.830;2022-07-06T17:01:41;32.10;99.90
44435;DHT22;30138;20.964;105.830;2022-07-06T17:06:47;32.10;99.90
44435;DHT22;30138;20.964;105.830;2022-07-06T17:11:54;32.10;99.90
44435;DHT22;30138;20.964;105.830;2022-07-06T17:17:02;32.10;99.90
44435;DHT22;30138;20.964;105.830;2022-07-06T17:22:09;32.00;99.90
44435;DHT22;30138;20.964;105.830;2022-07-06T17:27:15;32.00;99.90
44435;DHT22;30138;20.964;105.830;2022-07-06T17:32:23;32.10;99.90
44435;DHT22;30138;20.964;105.830;2022-07-06T17:37:29;32.00;99.90
44435;DHT22;30138;20.964;105.830;2022-07-06T17:42:35;32.10;99.90
44435;DHT22;30138;20.964;105.830;2022-07-06T17:47:43;32.10;99.90
44435;DHT22;30138;20.964;105.830;2022-07-06T17:52:50;32.00;99.90
44435;DHT22;30138;20.964;105.830;2022-07-06T17:57:57;32.00;99.90
44435;DHT22;30138;20.964;105.830;2022-07-06T18:03:07;32.00;99.90
44435;DHT22;30138;20.964;105.830;2022-07-06T18:08:13;32.00;99.90
44435;DHT22;30138;20.964;105.830;2022-07-06T18:13:20;32.00;99.90
44435;DHT22;30138;20.964;105.830;2022-07-06T18:18:28;32.00;99.90
44435;DHT22;30138;20.964;105.830;2022-07-06T18:23:34;32.00;99.90
44435;DHT22;30138;20.964;105.830;2022-07-06T18:28:41;32.00;99.90
44435;DHT22;30138;20.964;105.830;2022-07-06T18:33:49;32.00;99.90
44435;DHT22;30138;20.964;105.830;2022-07-06T18:38:56;32.00;99.90
44435;DHT22;30138;20.964;105.830;2022-07-06T18:44:02;31.90;99.90
44435;DHT22;30138;20.964;105.830;2022-07-06T18:49:10;31.90;99.90
44435;DHT22;30138;20.964;105.830;2022-07-06T18:54:16;31.90;99.90
44435;DHT22;30138;20.964;105.830;2022-07-06T18:59:23;32.00;99.90
44435;DHT22;30138;20.964;105.830;2022-07-06T19:04:31;31.90;99.90
44435;DHT22;30138;20.964;105.830;2022-07-06T19:09:37;31.90;99.90
44435;DHT22;30138;20.964;105.830;2022-07-06T19:14:43;31.90;99.90
44435;DHT22;30138;20.964;105.830;2022-07-06T19:19:51;31.90;99.90
44435;DHT22;30138;20.964;105.830;2022-07-06T19:24:57;31.90;99.90
44435;DHT22;30138;20.964;105.830;2022-07-06T19:30:04;31.90;99.90
44435;DHT22;30138;20.964;105.830;2022-07-06T19:35:12;31.90;99.90
44435;DHT22;30138;20.964;105.830;2022-07-06T19:40:18;31.90;99.90
44435;DHT22;30138;20.964;105.830;2022-07-06T19:45:25;31.90;99.90
44435;DHT22;30138;20.964;105.830;2022-07-06T19:50:33;31.90;99.90
44435;DHT22;30138;20.964;105.830;2022-07-06T19:55:39;31.80;99.90
44435;DHT22;30138;20.964;105.830;2022-07-06T20:00:45;31.80;99.90
44435;DHT22;30138;20.964;105.830;2022-07-06T20:05:57;31.80;99.90
44435;DHT22;30138;20.964;105.830;2022-07-06T20:11:04;31.80;99.90
44435;DHT22;30138;20.964;105.830;2022-07-06T20:16:12;31.80;99.90
44435;DHT22;30138;20.964;105.830;2022-07-06T20:21:48;31.80;99.90
44435;DHT22;30138;20.964;105.830;2022-07-06T20:26:56;31.80;99.90
44435;DHT22;30138;20.964;105.830;2022-07-06T20:32:04;31.70;99.90
44435;DHT22;30138;20.964;105.830;2022-07-06T20:37:16;31.70;99.90
44435;DHT22;30138;20.964;105.830;2022-07-06T20:42:23;31.70;99.90
44435;DHT22;30138;20.964;105.830;2022-07-06T20:47:31;31.70;99.90
44435;DHT22;30138;20.964;105.830;2022-07-06T20:52:41;31.70;99.90
44435;DHT22;30138;20.964;105.830;2022-07-06T20:57:48;31.60;99.90
44435;DHT22;30138;20.964;105.830;2022-07-06T21:02:56;31.60;99.90
44435;DHT22;30138;20.964;105.830;2022-07-06T21:08:06;31.60;99.90
44435;DHT22;30138;20.964;105.830;2022-07-06T21:13:13;31.60;99.90
44435;DHT22;30138;20.964;105.830;2022-07-06T21:18:19;31.60;99.90
44435;DHT22;30138;20.964;105.830;2022-07-06T21:23:28;31.60;99.90
44435;DHT22;30138;20.964;105.830;2022-07-06T21:28:36;31.50;99.90
44435;DHT22;30138;20.964;105.830;2022-07-06T21:33:44;31.50;99.90
44435;DHT22;30138;20.964;105.830;2022-07-06T21:38:54;31.50;99.90
44435;DHT22;30138;20.964;105.830;2022-07-06T21:44:01;31.50;99.90
44435;DHT22;30138;20.964;105.830;2022-07-06T21:49:10;31.50;99.90
44435;DHT22;30138;20.964;105.830;2022-07-06T21:54:19;31.50;99.90
44435;DHT22;30138;20.964;105.830;2022-07-06T21:59:26;31.50;99.90
44435;DHT22;30138;20.964;105.830;2022-07-06T22:04:34;31.50;99.90
44435;DHT22;30138;20.964;105.830;2022-07-06T22:09:44;31.50;99.90
44435;DHT22;30138;20.964;105.830;2022-07-06T22:14:52;31.50;99.90
44435;DHT22;30138;20.964;105.830;2022-07-06T22:20:02;31.50;99.90
44435;DHT22;30138;20.964;105.830;2022-07-06T22:25:13;31.40;99.90
44435;DHT22;30138;20.964;105.830;2022-07-06T22:30:20;31.40;99.90
44435;DHT22;30138;20.964;105.830;2022-07-06T22:35:28;31.40;99.90
44435;DHT22;30138;20.964;105.830;2022-07-06T22:40:38;31.40;99.90
44435;DHT22;30138;20.964;105.830;2022-07-06T22:46:02;31.40;99.90
44435;DHT22;30138;20.964;105.830;2022-07-06T22:51:12;31.40;99.90
44435;DHT22;30138;20.964;105.830;2022-07-06T22:56:22;31.40;99.90
44435;DHT22;30138;20.964;105.830;2022-07-06T23:01:31;31.40;99.90
44435;DHT22;30138;20.964;105.830;2022-07-06T23:06:39;31.40;99.90
44435;DHT22;30138;20.964;105.830;2022-07-06T23:11:49;31.40;99.90
44435;DHT22;30138;20.964;105.830;2022-07-06T23:16:57;31.40;99.90
44435;DHT22;30138;20.964;105.830;2022-07-06T23:22:05;31.40;99.90
44435;DHT22;30138;20.964;105.830;2022-07-06T23:27:14;31.40;99.90
44435;DHT22;30138;20.964;105.830;2022-07-06T23:32:21;31.40;99.90
44435;DHT22;30138;20.964;105.830;2022-07-06T23:37:29;31.40;99.90
44435;DHT22;30138;20.964;105.830;2022-07-06T23:42:39;31.40;99.90
44435;DHT22;30138;20.964;105.830;2022-07-06T23:47:47;31.30;99.90
44435;DHT22;30138;20.964;105.830;2022-07-06T23:52:55;31.40;99.90
44435;DHT22;30138;20.964;105.830;2022-07-06T23:58:06;31.30;99.90
